createdAt,value
2018-04-28T00:00:44.926Z,976.59
2018-04-28T00:01:45.109Z,976.61
2018-04-28T00:02:45.292Z,976.61
2018-04-28T00:03:45.477Z,976.65
2018-04-28T00:04:45.662Z,976.65
2018-04-28T00:05:45.848Z,976.66
2018-04-28T00:06:46.032Z,976.65
2018-04-28T00:07:46.218Z,976.67
2018-04-28T00:08:46.402Z,976.68
2018-04-28T00:09:46.588Z,976.70
2018-04-28T00:10:46.775Z,976.66
2018-04-28T00:11:46.958Z,976.65
2018-04-28T00:12:47.146Z,976.66
2018-04-28T00:13:47.330Z,976.64
2018-04-28T00:14:47.517Z,976.63
2018-04-28T00:15:47.705Z,976.66
2018-04-28T00:16:47.890Z,976.70
2018-04-28T00:17:48.076Z,976.69
2018-04-28T00:18:48.260Z,976.68
2018-04-28T00:19:48.446Z,976.73
2018-04-28T00:20:48.633Z,976.78
2018-04-28T00:21:48.817Z,976.78
2018-04-28T00:22:49.001Z,976.76
2018-04-28T00:23:49.187Z,976.82
2018-04-28T00:24:49.371Z,976.82
2018-04-28T00:25:49.556Z,976.80
2018-04-28T00:26:49.742Z,976.78
2018-04-28T00:27:49.927Z,976.81
2018-04-28T00:28:50.113Z,976.78
2018-04-28T00:29:50.300Z,976.82
2018-04-28T00:30:50.484Z,976.76
2018-04-28T00:31:50.669Z,976.77
2018-04-28T00:32:50.853Z,976.73
2018-04-28T00:33:51.042Z,976.75
2018-04-28T00:34:51.222Z,976.77
2018-04-28T00:35:51.407Z,976.82
2018-04-28T00:36:51.594Z,976.82
2018-04-28T00:37:51.779Z,976.82
2018-04-28T00:38:51.964Z,976.82
2018-04-28T00:39:52.148Z,976.84
2018-04-28T00:40:52.335Z,976.87
2018-04-28T00:41:52.519Z,976.83
2018-04-28T00:42:52.705Z,976.87
2018-04-28T00:43:52.891Z,976.83
2018-04-28T00:44:53.074Z,976.85
2018-04-28T00:45:53.261Z,976.85
2018-04-28T00:46:53.446Z,976.85
2018-04-28T00:47:53.631Z,976.89
2018-04-28T00:48:53.815Z,976.86
2018-04-28T00:49:53.999Z,976.84
2018-04-28T00:50:54.184Z,976.80
2018-04-28T00:51:54.369Z,976.85
2018-04-28T00:52:54.554Z,976.85
2018-04-28T00:53:54.743Z,976.86
2018-04-28T00:54:54.927Z,976.89
2018-04-28T00:55:55.109Z,976.89
2018-04-28T00:56:55.295Z,976.83
2018-04-28T00:57:55.481Z,976.82
2018-04-28T00:58:55.666Z,976.85
2018-04-28T00:59:55.850Z,976.86
2018-04-28T01:00:56.036Z,976.89
2018-04-28T01:01:56.220Z,976.89
2018-04-28T01:02:56.406Z,976.92
2018-04-28T01:03:56.592Z,976.90
2018-04-28T01:04:56.778Z,976.93
2018-04-28T01:05:56.963Z,976.91
2018-04-28T01:06:57.149Z,976.92
2018-04-28T01:07:57.332Z,976.90
2018-04-28T01:08:57.518Z,976.94
2018-04-28T01:09:57.701Z,976.98
2018-04-28T01:10:57.887Z,976.97
2018-04-28T01:11:58.073Z,976.95
2018-04-28T01:12:58.255Z,976.95
2018-04-28T01:13:58.440Z,977.01
2018-04-28T01:14:58.623Z,977.01
2018-04-28T01:15:58.806Z,977.07
2018-04-28T01:16:58.996Z,977.05
2018-04-28T01:17:59.179Z,977.09
2018-04-28T01:18:59.364Z,977.11
2018-04-28T01:19:59.552Z,977.07
2018-04-28T01:20:59.737Z,977.09
2018-04-28T01:21:59.924Z,977.10
2018-04-28T01:23:00.109Z,977.13
2018-04-28T01:24:00.291Z,977.15
2018-04-28T01:25:00.479Z,977.17
2018-04-28T01:26:00.660Z,977.18
2018-04-28T01:27:00.850Z,977.22
2018-04-28T01:28:01.033Z,977.21
2018-04-28T01:29:01.218Z,977.23
2018-04-28T01:30:01.441Z,977.25
2018-04-28T01:31:01.588Z,977.26
2018-04-28T01:32:01.774Z,977.30
2018-04-28T01:33:01.960Z,977.30
2018-04-28T01:34:02.147Z,977.33
2018-04-28T01:35:02.333Z,977.35
2018-04-28T01:36:02.519Z,977.35
2018-04-28T01:37:02.705Z,977.36
2018-04-28T01:38:02.891Z,977.35
2018-04-28T01:39:03.077Z,977.36
2018-04-28T01:40:03.268Z,977.33
2018-04-28T01:41:03.446Z,977.34
2018-04-28T01:42:03.637Z,977.37
2018-04-28T01:43:03.818Z,977.36
2018-04-28T01:44:04.005Z,977.39
2018-04-28T01:45:04.191Z,977.38
2018-04-28T01:46:04.377Z,977.43
2018-04-28T01:47:04.563Z,977.39
2018-04-28T01:48:04.751Z,977.43
2018-04-28T01:49:04.942Z,977.41
2018-04-28T01:50:05.293Z,977.41
2018-04-28T01:51:05.354Z,977.44
2018-04-28T01:52:05.542Z,977.42
2018-04-28T01:53:05.728Z,977.48
2018-04-28T01:54:05.912Z,977.46
2018-04-28T01:55:06.099Z,977.49
2018-04-28T01:56:06.283Z,977.49
2018-04-28T01:57:06.469Z,977.48
2018-04-28T01:58:06.657Z,977.47
2018-04-28T01:59:06.841Z,977.50
2018-04-28T02:00:07.029Z,977.49
2018-04-28T02:01:07.215Z,977.52
2018-04-28T02:02:07.399Z,977.54
2018-04-28T02:03:07.586Z,977.57
2018-04-28T02:04:07.771Z,977.51
2018-04-28T02:05:07.958Z,977.54
2018-04-28T02:06:08.143Z,977.57
2018-04-28T02:07:08.329Z,977.56
2018-04-28T02:08:08.517Z,977.59
2018-04-28T02:09:08.697Z,977.60
2018-04-28T02:10:08.882Z,977.59
2018-04-28T02:11:09.070Z,977.58
2018-04-28T02:12:09.253Z,977.56
2018-04-28T02:13:09.440Z,977.56
2018-04-28T02:14:09.627Z,977.53
2018-04-28T02:15:09.812Z,977.55
2018-04-28T02:16:09.998Z,977.56
2018-04-28T02:17:10.183Z,977.56
2018-04-28T02:18:10.367Z,977.57
2018-04-28T02:19:10.553Z,977.53
2018-04-28T02:20:10.740Z,977.53
2018-04-28T02:21:10.926Z,977.53
2018-04-28T02:22:11.110Z,977.56
2018-04-28T02:23:11.295Z,977.55
2018-04-28T02:24:11.479Z,977.58
2018-04-28T02:25:11.664Z,977.55
2018-04-28T02:26:11.850Z,977.56
2018-04-28T02:27:12.037Z,977.57
2018-04-28T02:28:12.221Z,977.55
2018-04-28T02:29:12.410Z,977.54
2018-04-28T02:30:12.590Z,977.57
2018-04-28T02:31:12.776Z,977.56
2018-04-28T02:32:12.962Z,977.53
2018-04-28T02:33:13.147Z,977.55
2018-04-28T02:34:13.334Z,977.55
2018-04-28T02:35:13.519Z,977.58
2018-04-28T02:36:13.704Z,977.58
2018-04-28T02:37:13.889Z,977.58
2018-04-28T02:38:14.076Z,977.59
2018-04-28T02:39:14.260Z,977.58
2018-04-28T02:40:14.447Z,977.59
2018-04-28T02:41:14.633Z,977.60
2018-04-28T02:42:14.818Z,977.60
2018-04-28T02:43:15.002Z,977.61
2018-04-28T02:44:15.189Z,977.60
2018-04-28T02:45:15.373Z,977.65
2018-04-28T02:46:15.560Z,977.62
2018-04-28T02:47:15.747Z,977.64
2018-04-28T02:48:15.931Z,977.67
2018-04-28T02:49:16.114Z,977.64
2018-04-28T02:50:16.302Z,977.65
2018-04-28T02:51:16.488Z,977.66
2018-04-28T02:52:16.674Z,977.67
2018-04-28T02:53:16.859Z,977.68
2018-04-28T02:54:17.044Z,977.70
2018-04-28T02:55:17.231Z,977.68
2018-04-28T02:56:17.415Z,977.66
2018-04-28T02:57:17.597Z,977.66
2018-04-28T02:58:17.783Z,977.68
2018-04-28T02:59:17.970Z,977.68
2018-04-28T03:00:18.156Z,977.70
2018-04-28T03:01:18.342Z,977.69
2018-04-28T03:02:18.529Z,977.68
2018-04-28T03:03:18.713Z,977.71
2018-04-28T03:04:18.903Z,977.69
2018-04-28T03:05:19.088Z,977.67
2018-04-28T03:06:19.270Z,977.71
2018-04-28T03:07:19.458Z,977.73
2018-04-28T03:08:19.644Z,977.71
2018-04-28T03:09:19.828Z,977.73
2018-04-28T03:10:20.013Z,977.75
2018-04-28T03:11:20.200Z,977.74
2018-04-28T03:12:20.384Z,977.74
2018-04-28T03:13:20.571Z,977.78
2018-04-28T03:14:20.755Z,977.77
2018-04-28T03:15:20.939Z,977.76
2018-04-28T03:16:21.128Z,977.80
2018-04-28T03:17:21.312Z,977.80
2018-04-28T03:18:21.498Z,977.79
2018-04-28T03:19:21.684Z,977.79
2018-04-28T03:20:21.870Z,977.79
2018-04-28T03:21:22.059Z,977.79
2018-04-28T03:22:22.236Z,977.78
2018-04-28T03:23:22.423Z,977.82
2018-04-28T03:24:22.610Z,977.80
2018-04-28T03:25:22.791Z,977.83
2018-04-28T03:26:22.975Z,977.82
2018-04-28T03:27:23.152Z,977.87
2018-04-28T03:28:23.353Z,977.91
2018-04-28T03:29:23.533Z,977.87
2018-04-28T03:30:23.720Z,977.89
2018-04-28T03:31:23.905Z,977.91
2018-04-28T03:32:24.091Z,977.91
2018-04-28T03:33:24.279Z,977.89
2018-04-28T03:34:24.461Z,977.93
2018-04-28T03:35:24.648Z,977.92
2018-04-28T03:36:24.832Z,977.93
2018-04-28T03:37:25.018Z,977.94
2018-04-28T03:38:25.201Z,978.01
2018-04-28T03:39:25.388Z,978.01
2018-04-28T03:40:25.570Z,978.07
2018-04-28T03:41:25.757Z,978.05
2018-04-28T03:42:25.943Z,978.09
2018-04-28T03:43:26.125Z,978.11
2018-04-28T03:44:26.311Z,978.13
2018-04-28T03:45:26.495Z,978.15
2018-04-28T03:46:26.679Z,978.16
2018-04-28T03:47:26.864Z,978.14
2018-04-28T03:48:27.048Z,978.18
2018-04-28T03:49:27.235Z,978.17
2018-04-28T03:50:27.422Z,978.17
2018-04-28T03:51:27.603Z,978.17
2018-04-28T03:52:27.790Z,978.17
2018-04-28T03:53:27.987Z,978.20
2018-04-28T03:54:28.161Z,978.19
2018-04-28T03:55:28.346Z,978.18
2018-04-28T03:56:28.532Z,978.15
2018-04-28T03:57:28.717Z,978.15
2018-04-28T03:58:28.900Z,978.14
2018-04-28T03:59:29.087Z,978.16
2018-04-28T04:00:29.271Z,978.19
2018-04-28T04:01:29.455Z,978.20
2018-04-28T04:02:29.641Z,978.19
2018-04-28T04:03:29.829Z,978.22
2018-04-28T04:04:30.014Z,978.19
2018-04-28T04:05:30.200Z,978.21
2018-04-28T04:06:30.384Z,978.23
2018-04-28T04:07:30.568Z,978.25
2018-04-28T04:08:30.753Z,978.21
2018-04-28T04:09:30.939Z,978.23
2018-04-28T04:10:31.127Z,978.29
2018-04-28T04:11:31.310Z,978.33
2018-04-28T04:12:31.495Z,978.32
2018-04-28T04:13:31.677Z,978.35
2018-04-28T04:14:31.865Z,978.37
2018-04-28T04:15:32.049Z,978.36
2018-04-28T04:16:32.235Z,978.37
2018-04-28T04:17:32.421Z,978.35
2018-04-28T04:18:32.607Z,978.38
2018-04-28T04:19:32.792Z,978.42
2018-04-28T04:20:32.978Z,978.41
2018-04-28T04:21:33.164Z,978.41
2018-04-28T04:22:33.349Z,978.43
2018-04-28T04:23:33.536Z,978.45
2018-04-28T04:24:33.721Z,978.45
2018-04-28T04:25:33.912Z,978.50
2018-04-28T04:26:34.156Z,978.51
2018-04-28T04:27:34.278Z,978.54
2018-04-28T04:28:34.463Z,978.57
2018-04-28T04:29:34.653Z,978.59
2018-04-28T04:30:34.834Z,978.60
2018-04-28T04:31:35.021Z,978.60
2018-04-28T04:32:35.207Z,978.64
2018-04-28T04:33:35.392Z,978.67
2018-04-28T04:34:35.583Z,978.71
2018-04-28T04:35:35.766Z,978.72
2018-04-28T04:36:35.951Z,978.73
2018-04-28T04:37:36.163Z,978.75
2018-04-28T04:38:36.329Z,978.76
2018-04-28T04:39:36.510Z,978.78
2018-04-28T04:40:36.697Z,978.83
2018-04-28T04:41:36.886Z,978.83
2018-04-28T04:42:37.069Z,978.80
2018-04-28T04:43:37.257Z,978.79
2018-04-28T04:44:37.443Z,978.79
2018-04-28T04:45:37.632Z,978.84
2018-04-28T04:46:37.817Z,978.81
2018-04-28T04:47:38.008Z,978.89
2018-04-28T04:48:38.192Z,978.92
2018-04-28T04:49:38.382Z,978.95
2018-04-28T04:50:38.570Z,978.95
2018-04-28T04:51:38.758Z,978.98
2018-04-28T04:52:38.944Z,979.00
2018-04-28T04:53:39.131Z,979.01
2018-04-28T04:54:39.319Z,979.07
2018-04-28T04:55:39.507Z,979.10
2018-04-28T04:56:39.698Z,979.14
2018-04-28T04:57:39.882Z,979.11
2018-04-28T04:58:40.071Z,979.10
2018-04-28T04:59:40.260Z,979.12
2018-04-28T05:00:40.449Z,979.14
2018-04-28T05:01:40.639Z,979.18
2018-04-28T05:02:40.827Z,979.23
2018-04-28T05:03:41.016Z,979.28
2018-04-28T05:04:41.203Z,979.29
2018-04-28T05:05:41.395Z,979.31
2018-04-28T05:06:41.585Z,979.35
2018-04-28T05:07:41.776Z,979.37
2018-04-28T05:08:41.963Z,979.40
2018-04-28T05:09:42.157Z,979.34
2018-04-28T05:10:42.349Z,979.41
2018-04-28T05:11:42.535Z,979.44
2018-04-28T05:12:42.729Z,979.41
2018-04-28T05:13:42.918Z,979.45
2018-04-28T05:14:43.108Z,979.51
2018-04-28T05:15:43.300Z,979.50
2018-04-28T05:16:43.493Z,979.53
2018-04-28T05:17:43.685Z,979.59
2018-04-28T05:18:43.874Z,979.62
2018-04-28T05:19:44.067Z,979.59
2018-04-28T05:20:44.259Z,979.62
2018-04-28T05:21:44.454Z,979.69
2018-04-28T05:22:44.644Z,979.65
2018-04-28T05:23:44.837Z,979.65
2018-04-28T05:24:45.028Z,979.68
2018-04-28T05:25:45.221Z,979.70
2018-04-28T05:26:45.417Z,979.68
2018-04-28T05:27:45.609Z,979.74
2018-04-28T05:28:45.801Z,979.78
2018-04-28T05:29:45.994Z,979.82
2018-04-28T05:30:46.189Z,979.83
2018-04-28T05:31:46.384Z,979.83
2018-04-28T05:32:46.578Z,979.88
2018-04-28T05:33:46.774Z,979.91
2018-04-28T05:34:46.969Z,979.89
2018-04-28T05:35:47.164Z,979.89
2018-04-28T05:36:47.359Z,979.87
2018-04-28T05:37:47.559Z,979.95
2018-04-28T05:38:47.750Z,979.96
2018-04-28T05:39:47.950Z,979.92
2018-04-28T05:40:48.142Z,979.96
2018-04-28T05:41:48.340Z,980.00
2018-04-28T05:42:48.542Z,980.03
2018-04-28T05:43:48.734Z,980.00
2018-04-28T05:44:48.932Z,980.04
2018-04-28T05:45:49.132Z,980.02
2018-04-28T05:46:49.328Z,980.07
2018-04-28T05:47:49.525Z,980.08
2018-04-28T05:48:49.724Z,980.08
2018-04-28T05:49:49.922Z,980.06
2018-04-28T05:50:50.120Z,980.05
2018-04-28T05:51:50.319Z,980.10
2018-04-28T05:52:50.519Z,980.10
2018-04-28T05:53:50.716Z,980.08
2018-04-28T05:54:50.916Z,980.07
2018-04-28T05:55:51.115Z,980.10
2018-04-28T05:56:51.313Z,980.07
2018-04-28T05:57:51.535Z,980.13
2018-04-28T05:58:51.710Z,980.17
2018-04-28T05:59:51.911Z,980.12
2018-04-28T06:00:52.111Z,980.16
2018-04-28T06:01:52.309Z,980.26
2018-04-28T06:02:52.510Z,980.26
2018-04-28T06:03:52.712Z,980.19
2018-04-28T06:04:52.909Z,980.17
2018-04-28T06:05:53.108Z,980.16
2018-04-28T06:06:53.314Z,980.17
2018-04-28T06:07:53.508Z,980.20
2018-04-28T06:08:53.706Z,980.21
2018-04-28T06:09:53.906Z,980.25
2018-04-28T06:10:54.106Z,980.21
2018-04-28T06:11:54.305Z,980.18
2018-04-28T06:12:54.502Z,980.27
2018-04-28T06:13:54.702Z,980.27
2018-04-28T06:14:54.904Z,980.24
2018-04-28T06:15:55.105Z,980.26
2018-04-28T06:16:55.306Z,980.29
2018-04-28T06:17:55.504Z,980.31
2018-04-28T06:18:55.706Z,980.37
2018-04-28T06:19:55.913Z,980.43
2018-04-28T06:20:56.107Z,980.33
2018-04-28T06:21:56.308Z,980.24
2018-04-28T06:22:56.508Z,980.32
2018-04-28T06:23:56.707Z,980.29
2018-04-28T06:24:56.907Z,980.31
2018-04-28T06:25:57.202Z,980.31
2018-04-28T06:26:57.309Z,980.33
2018-04-28T06:27:57.508Z,980.34
2018-04-28T06:28:57.711Z,980.33
2018-04-28T06:29:57.914Z,980.25
2018-04-28T06:30:58.116Z,980.36
2018-04-28T06:31:58.317Z,980.32
2018-04-28T06:32:58.520Z,980.33
2018-04-28T06:33:58.721Z,980.34
2018-04-28T06:34:58.923Z,980.43
2018-04-28T06:35:59.127Z,980.36
2018-04-28T06:36:59.329Z,980.22
2018-04-28T06:37:59.531Z,980.37
2018-04-28T06:38:59.733Z,980.37
2018-04-28T06:39:59.935Z,980.39
2018-04-28T06:41:00.136Z,980.35
2018-04-28T06:42:00.337Z,980.30
2018-04-28T06:43:00.543Z,980.36
2018-04-28T06:44:00.745Z,980.34
2018-04-28T06:45:00.949Z,980.40
2018-04-28T06:46:01.152Z,980.43
2018-04-28T06:47:01.356Z,980.35
2018-04-28T06:48:01.560Z,980.42
2018-04-28T06:49:01.766Z,980.48
2018-04-28T06:50:01.971Z,980.45
2018-04-28T06:51:02.194Z,980.46
2018-04-28T06:52:02.376Z,980.51
2018-04-28T06:53:02.580Z,980.55
2018-04-28T06:54:02.784Z,980.55
2018-04-28T06:55:02.991Z,980.53
2018-04-28T06:56:03.192Z,980.54
2018-04-28T06:57:03.397Z,980.53
2018-04-28T06:58:03.603Z,980.51
2018-04-28T06:59:03.806Z,980.56
2018-04-28T07:00:04.011Z,980.59
2018-04-28T07:01:04.215Z,980.61
2018-04-28T07:02:04.419Z,980.60
2018-04-28T07:03:04.625Z,980.62
2018-04-28T07:04:04.830Z,980.60
2018-04-28T07:05:05.034Z,980.65
2018-04-28T07:06:05.238Z,980.62
2018-04-28T07:07:05.443Z,980.60
2018-04-28T07:08:05.648Z,980.58
2018-04-28T07:09:05.853Z,980.59
2018-04-28T07:10:06.059Z,980.61
2018-04-28T07:11:06.264Z,980.64
2018-04-28T07:12:06.466Z,980.62
2018-04-28T07:13:06.670Z,980.64
2018-04-28T07:14:06.877Z,980.69
2018-04-28T07:15:07.082Z,980.67
2018-04-28T07:16:07.285Z,980.71
2018-04-28T07:17:07.492Z,980.71
2018-04-28T07:18:07.694Z,980.74
2018-04-28T07:19:07.898Z,980.76
2018-04-28T07:20:08.103Z,980.71
2018-04-28T07:21:08.320Z,980.73
2018-04-28T07:22:08.515Z,980.78
2018-04-28T07:23:08.721Z,980.72
2018-04-28T07:24:08.926Z,980.78
2018-04-28T07:25:09.129Z,980.82
2018-04-28T07:26:09.336Z,980.79
2018-04-28T07:27:09.538Z,980.86
2018-04-28T07:28:09.746Z,980.85
2018-04-28T07:29:09.999Z,980.59
2018-04-28T07:30:10.155Z,980.81
2018-04-28T07:31:10.362Z,980.76
2018-04-28T07:32:10.571Z,980.83
2018-04-28T07:33:10.773Z,980.83
2018-04-28T07:34:10.977Z,980.83
2018-04-28T07:35:11.182Z,980.81
2018-04-28T07:36:11.389Z,980.86
2018-04-28T07:37:11.594Z,980.80
2018-04-28T07:38:11.799Z,980.82
2018-04-28T07:39:12.006Z,980.76
2018-04-28T07:40:12.211Z,980.77
2018-04-28T07:41:12.417Z,980.80
2018-04-28T07:42:12.632Z,980.78
2018-04-28T07:43:12.828Z,980.75
2018-04-28T07:44:13.032Z,980.73
2018-04-28T07:45:13.239Z,980.75
2018-04-28T07:46:13.441Z,980.73
2018-04-28T07:47:13.645Z,980.73
2018-04-28T07:48:13.852Z,980.81
2018-04-28T07:49:14.057Z,980.79
2018-04-28T07:50:14.262Z,980.76
2018-04-28T07:51:14.467Z,980.80
2018-04-28T07:52:14.674Z,980.79
2018-04-28T07:53:14.879Z,980.83
2018-04-28T07:54:15.084Z,980.79
2018-04-28T07:55:15.289Z,980.76
2018-04-28T07:56:15.495Z,980.76
2018-04-28T07:57:15.700Z,980.71
2018-04-28T07:58:15.904Z,980.77
2018-04-28T07:59:16.108Z,980.78
2018-04-28T08:00:16.374Z,980.79
2018-04-28T08:01:16.518Z,980.85
2018-04-28T08:02:16.722Z,980.89
2018-04-28T08:03:16.926Z,980.90
2018-04-28T08:04:17.131Z,980.82
2018-04-28T08:05:17.335Z,980.86
2018-04-28T08:06:17.540Z,980.89
2018-04-28T08:07:17.745Z,980.85
2018-04-28T08:08:17.949Z,980.82
2018-04-28T08:09:18.157Z,980.91
2018-04-28T08:10:18.361Z,980.86
2018-04-28T08:11:18.566Z,980.95
2018-04-28T08:12:18.768Z,980.90
2018-04-28T08:13:18.973Z,980.98
2018-04-28T08:14:19.177Z,981.02
2018-04-28T08:15:19.448Z,981.06
2018-04-28T08:16:19.588Z,981.11
2018-04-28T08:17:19.791Z,981.22
2018-04-28T08:18:19.996Z,981.38
2018-04-28T08:19:20.199Z,981.36
2018-04-28T08:20:20.401Z,981.58
2018-04-28T08:21:20.608Z,981.98
2018-04-28T08:22:20.815Z,982.40
2018-04-28T08:23:21.018Z,982.29
2018-04-28T08:24:21.223Z,981.94
2018-04-28T08:25:21.427Z,981.61
2018-04-28T08:26:21.631Z,981.37
2018-04-28T08:27:21.836Z,981.32
2018-04-28T08:28:22.041Z,981.30
2018-04-28T08:29:22.242Z,981.17
2018-04-28T08:30:22.445Z,981.14
2018-04-28T08:31:22.650Z,981.07
2018-04-28T08:32:22.852Z,980.98
2018-04-28T08:33:23.057Z,980.85
2018-04-28T08:34:23.259Z,980.78
2018-04-28T08:35:23.457Z,980.78
2018-04-28T08:36:23.660Z,980.72
2018-04-28T08:37:23.937Z,980.69
2018-04-28T08:38:24.068Z,980.72
2018-04-28T08:39:24.272Z,980.70
2018-04-28T08:40:24.478Z,980.72
2018-04-28T08:41:24.682Z,980.68
2018-04-28T08:42:24.883Z,980.68
2018-04-28T08:43:25.091Z,980.67
2018-04-28T08:44:25.291Z,980.60
2018-04-28T08:45:25.496Z,980.63
2018-04-28T08:46:25.697Z,980.65
2018-04-28T08:47:25.901Z,980.67
2018-04-28T08:48:26.103Z,980.55
2018-04-28T08:49:26.307Z,980.64
2018-04-28T08:50:26.514Z,980.61
2018-04-28T08:51:26.710Z,980.61
2018-04-28T08:52:26.915Z,980.60
2018-04-28T08:53:27.116Z,980.59
2018-04-28T08:54:27.325Z,980.55
2018-04-28T08:55:27.524Z,980.48
2018-04-28T08:56:27.723Z,980.62
2018-04-28T08:57:27.927Z,980.62
2018-04-28T08:58:28.128Z,980.71
2018-04-28T08:59:28.333Z,980.76
2018-04-28T09:00:28.532Z,980.76
2018-04-28T09:01:28.737Z,980.72
2018-04-28T09:02:28.938Z,980.78
2018-04-28T09:03:29.138Z,980.76
2018-04-28T09:04:29.338Z,980.77
2018-04-28T09:05:29.541Z,980.68
2018-04-28T09:06:29.744Z,980.58
2018-04-28T09:07:29.947Z,980.61
2018-04-28T09:08:30.147Z,980.62
2018-04-28T09:09:30.348Z,980.69
2018-04-28T09:10:30.549Z,980.61
2018-04-28T09:11:30.791Z,980.61
2018-04-28T09:12:30.953Z,980.61
2018-04-28T09:13:31.153Z,980.61
2018-04-28T09:14:31.354Z,980.65
2018-04-28T09:15:31.558Z,980.58
2018-04-28T09:16:31.760Z,980.55
2018-04-28T09:17:31.957Z,980.53
2018-04-28T09:18:32.158Z,980.60
2018-04-28T09:19:32.407Z,980.56
2018-04-28T09:20:32.560Z,980.54
2018-04-28T09:21:32.763Z,980.54
2018-04-28T09:22:32.962Z,980.61
2018-04-28T09:23:33.163Z,980.56
2018-04-28T09:24:33.363Z,980.52
2018-04-28T09:25:33.566Z,980.53
2018-04-28T09:26:33.765Z,980.48
2018-04-28T09:27:33.963Z,980.47
2018-04-28T09:28:34.165Z,980.59
2018-04-28T09:29:34.367Z,980.47
2018-04-28T09:30:34.567Z,980.44
2018-04-28T09:31:34.770Z,980.52
2018-04-28T09:32:34.968Z,980.46
2018-04-28T09:33:35.168Z,980.46
2018-04-28T09:34:35.375Z,980.36
2018-04-28T09:35:35.569Z,980.41
2018-04-28T09:36:35.767Z,980.38
2018-04-28T09:37:35.965Z,980.40
2018-04-28T09:38:36.166Z,980.34
2018-04-28T09:39:36.365Z,980.34
2018-04-28T09:40:36.567Z,980.25
2018-04-28T09:41:36.766Z,980.30
2018-04-28T09:42:36.966Z,980.28
2018-04-28T09:43:37.166Z,980.35
2018-04-28T09:44:37.366Z,980.34
2018-04-28T09:45:37.565Z,980.32
2018-04-28T09:46:37.764Z,980.29
2018-04-28T09:47:37.965Z,980.30
2018-04-28T09:48:38.166Z,980.28
2018-04-28T09:49:38.366Z,980.30
2018-04-28T09:50:38.564Z,980.34
2018-04-28T09:51:38.766Z,980.34
2018-04-28T09:52:38.967Z,980.39
2018-04-28T09:53:39.166Z,980.35
2018-04-28T09:54:39.366Z,980.32
2018-04-28T09:55:39.556Z,980.31
2018-04-28T09:56:39.754Z,980.31
2018-04-28T09:57:39.952Z,980.33
2018-04-28T09:58:40.149Z,980.31
2018-04-28T09:59:40.354Z,980.31
2018-04-28T10:00:40.547Z,980.30
2018-04-28T10:01:40.750Z,980.38
2018-04-28T10:02:40.942Z,980.33
2018-04-28T10:03:41.140Z,980.31
2018-04-28T10:04:41.335Z,980.30
2018-04-28T10:05:41.534Z,980.31
2018-04-28T10:06:41.730Z,980.26
2018-04-28T10:07:41.928Z,980.28
2018-04-28T10:08:42.126Z,980.34
2018-04-28T10:09:42.321Z,980.36
2018-04-28T10:10:42.520Z,980.30
2018-04-28T10:11:42.716Z,980.35
2018-04-28T10:12:42.929Z,980.34
2018-04-28T10:13:43.106Z,980.36
2018-04-28T10:14:43.301Z,980.28
2018-04-28T10:15:43.501Z,980.16
2018-04-28T10:16:43.695Z,980.24
2018-04-28T10:17:43.890Z,980.22
2018-04-28T10:18:44.086Z,980.19
2018-04-28T10:19:44.284Z,980.12
2018-04-28T10:20:44.482Z,980.16
2018-04-28T10:21:44.676Z,980.08
2018-04-28T10:22:44.873Z,980.21
2018-04-28T10:23:45.074Z,980.21
2018-04-28T10:24:45.266Z,980.23
2018-04-28T10:25:45.459Z,980.17
2018-04-28T10:26:45.659Z,980.13
2018-04-28T10:27:45.856Z,980.15
2018-04-28T10:28:46.054Z,980.10
2018-04-28T10:29:46.250Z,980.05
2018-04-28T10:30:46.483Z,980.11
2018-04-28T10:31:46.639Z,980.02
2018-04-28T10:32:46.835Z,980.01
2018-04-28T10:33:47.030Z,979.86
2018-04-28T10:34:47.224Z,979.96
2018-04-28T10:35:47.424Z,979.97
2018-04-28T10:36:47.616Z,979.96
2018-04-28T10:37:47.810Z,979.97
2018-04-28T10:38:48.009Z,979.96
2018-04-28T10:39:48.203Z,979.95
2018-04-28T10:40:48.397Z,980.01
2018-04-28T10:41:48.592Z,980.07
2018-04-28T10:42:48.786Z,979.94
2018-04-28T10:43:48.982Z,980.08
2018-04-28T10:44:49.177Z,979.99
2018-04-28T10:45:49.373Z,980.07
2018-04-28T10:46:49.568Z,980.06
2018-04-28T10:47:49.763Z,979.99
2018-04-28T10:48:49.960Z,979.98
2018-04-28T10:49:50.155Z,979.97
2018-04-28T10:50:50.353Z,979.94
2018-04-28T10:51:50.546Z,979.95
2018-04-28T10:52:50.741Z,979.84
2018-04-28T10:53:50.990Z,979.98
2018-04-28T10:54:51.135Z,979.98
2018-04-28T10:55:51.330Z,979.98
2018-04-28T10:56:51.526Z,980.02
2018-04-28T10:57:51.720Z,979.99
2018-04-28T10:58:51.916Z,979.86
2018-04-28T10:59:52.113Z,980.05
2018-04-28T11:00:52.307Z,979.97
2018-04-28T11:01:52.501Z,979.91
2018-04-28T11:02:52.703Z,979.95
2018-04-28T11:03:52.894Z,979.91
2018-04-28T11:04:53.094Z,979.81
2018-04-28T11:05:53.288Z,979.93
2018-04-28T11:06:53.483Z,979.85
2018-04-28T11:07:53.676Z,979.85
2018-04-28T11:08:53.872Z,979.85
2018-04-28T11:09:54.069Z,979.81
2018-04-28T11:10:54.265Z,979.86
2018-04-28T11:11:54.459Z,979.84
2018-04-28T11:12:54.656Z,979.87
2018-04-28T11:13:54.869Z,979.91
2018-04-28T11:14:55.043Z,979.87
2018-04-28T11:15:55.240Z,979.77
2018-04-28T11:16:55.434Z,979.85
2018-04-28T11:17:55.630Z,979.88
2018-04-28T11:18:55.826Z,979.88
2018-04-28T11:19:56.081Z,979.91
2018-04-28T11:20:56.220Z,979.88
2018-04-28T11:21:56.413Z,979.91
2018-04-28T11:22:56.608Z,979.92
2018-04-28T11:23:56.804Z,979.95
2018-04-28T11:24:56.999Z,979.94
2018-04-28T11:25:57.192Z,979.91
2018-04-28T11:26:57.386Z,979.87
2018-04-28T11:27:57.581Z,979.93
2018-04-28T11:28:57.775Z,979.91
2018-04-28T11:29:57.969Z,979.89
2018-04-28T11:30:58.164Z,979.87
2018-04-28T11:31:58.357Z,979.87
2018-04-28T11:32:58.593Z,979.91
2018-04-28T11:33:58.746Z,979.87
2018-04-28T11:34:58.941Z,979.91
2018-04-28T11:35:59.133Z,979.88
2018-04-28T11:36:59.328Z,979.93
2018-04-28T11:37:59.523Z,979.92
2018-04-28T11:38:59.716Z,979.87
2018-04-28T11:39:59.910Z,979.92
2018-04-28T11:41:00.105Z,979.94
2018-04-28T11:42:00.299Z,979.91
2018-04-28T11:43:00.492Z,979.87
2018-04-28T11:44:00.691Z,979.90
2018-04-28T11:45:00.882Z,979.85
2018-04-28T11:46:01.078Z,979.84
2018-04-28T11:47:01.271Z,979.82
2018-04-28T11:48:01.463Z,979.83
2018-04-28T11:49:01.659Z,979.79
2018-04-28T11:50:01.852Z,979.73
2018-04-28T11:51:02.047Z,979.58
2018-04-28T11:52:02.241Z,979.76
2018-04-28T11:53:02.436Z,979.75
2018-04-28T11:54:02.631Z,979.70
2018-04-28T11:55:02.829Z,979.65
2018-04-28T11:56:03.124Z,979.72
2018-04-28T11:57:03.194Z,979.60
2018-04-28T11:58:03.457Z,979.70
2018-04-28T11:59:03.545Z,979.68
2018-04-28T12:00:03.824Z,979.81
2018-04-28T12:01:03.893Z,979.72
2018-04-28T12:02:04.087Z,979.72
2018-04-28T12:03:04.286Z,979.71
2018-04-28T12:04:04.478Z,979.69
2018-04-28T12:05:04.705Z,979.79
2018-04-28T12:06:04.867Z,979.76
2018-04-28T12:07:05.063Z,979.83
2018-04-28T12:08:05.257Z,979.77
2018-04-28T12:09:05.451Z,979.82
2018-04-28T12:10:05.649Z,979.78
2018-04-28T12:11:05.841Z,979.83
2018-04-28T12:12:06.035Z,979.78
2018-04-28T12:13:06.228Z,979.79
2018-04-28T12:14:06.427Z,979.79
2018-04-28T12:15:06.617Z,979.79
2018-04-28T12:16:06.811Z,979.81
2018-04-28T12:17:07.010Z,979.83
2018-04-28T12:18:07.200Z,979.80
2018-04-28T12:19:07.395Z,979.87
2018-04-28T12:20:07.590Z,979.84
2018-04-28T12:21:07.869Z,979.76
2018-04-28T12:22:07.975Z,979.81
2018-04-28T12:23:08.169Z,979.76
2018-04-28T12:24:08.362Z,979.79
2018-04-28T12:25:08.555Z,979.77
2018-04-28T12:26:08.750Z,979.71
2018-04-28T12:27:08.944Z,979.72
2018-04-28T12:28:09.141Z,979.77
2018-04-28T12:29:09.333Z,979.81
2018-04-28T12:30:09.527Z,979.80
2018-04-28T12:31:09.721Z,979.79